createdAt,value
2019-01-21T00:03:56.985Z,4.63
2019-01-21T00:09:00.991Z,4.81
2019-01-21T00:14:06.128Z,5.24
2019-01-21T00:19:10.204Z,5.40
2019-01-21T00:24:14.616Z,5.62
2019-01-21T00:29:19.740Z,5.58
2019-01-21T00:34:23.701Z,5.17
2019-01-21T00:39:28.151Z,5.07
2019-01-21T00:44:32.030Z,4.97
2019-01-21T00:49:36.293Z,4.60
2019-01-21T00:54:40.211Z,4.62
2019-01-21T00:59:45.723Z,4.41
2019-01-21T01:04:50.258Z,4.33
2019-01-21T01:09:54.214Z,4.41
2019-01-21T01:14:58.287Z,4.43
2019-01-21T01:20:03.563Z,4.33
2019-01-21T01:25:09.452Z,4.45
2019-01-21T01:30:15.982Z,4.40
2019-01-21T01:35:20.204Z,4.26
2019-01-21T01:40:24.222Z,4.17
2019-01-21T01:45:28.384Z,3.98
2019-01-21T01:50:32.923Z,3.75
2019-01-21T01:55:37.919Z,3.94
2019-01-21T02:00:42.238Z,3.96
2019-01-21T02:05:46.237Z,3.93
2019-01-21T02:10:50.520Z,3.81
2019-01-21T02:15:55.818Z,3.83
2019-01-21T02:21:03.883Z,3.84
2019-01-21T02:26:18.751Z,3.73
2019-01-21T02:31:48.573Z,4.03
2019-01-21T02:37:25.804Z,4.08
2019-01-21T02:42:59.130Z,4.10
2019-01-21T02:48:34.128Z,3.76
2019-01-21T02:54:02.546Z,4.03
2019-01-21T02:59:25.450Z,3.74
2019-01-21T03:04:57.609Z,3.79
2019-01-21T03:10:37.628Z,3.73
2019-01-21T03:16:25.070Z,3.37
2019-01-21T03:22:24.135Z,3.19
2019-01-21T03:28:05.384Z,3.02
2019-01-21T03:33:32.173Z,2.85
2019-01-21T03:39:15.383Z,2.85
2019-01-21T03:45:07.587Z,2.73
2019-01-21T03:50:51.667Z,2.69
2019-01-21T03:56:00.437Z,2.41
2019-01-21T04:01:55.141Z,2.35
2019-01-21T04:07:06.330Z,2.41
2019-01-21T04:12:43.623Z,2.49
2019-01-21T04:18:30.634Z,2.23
2019-01-21T04:24:00.174Z,2.29
2019-01-21T04:29:37.779Z,2.38
2019-01-21T04:35:42.482Z,2.45
2019-01-21T04:41:24.183Z,2.54
2019-01-21T04:46:51.995Z,2.73
2019-01-21T04:52:15.798Z,2.78
2019-01-21T04:57:58.076Z,2.83
2019-01-21T05:03:15.618Z,2.78
2019-01-21T05:09:07.245Z,2.77
2019-01-21T05:14:51.096Z,2.68
2019-01-21T05:20:27.360Z,2.84
2019-01-21T05:26:07.900Z,2.61
2019-01-21T05:31:52.745Z,2.08
2019-01-21T05:38:00.935Z,1.62
2019-01-21T05:43:52.173Z,1.15
2019-01-21T05:49:42.495Z,1.09
2019-01-21T05:55:17.226Z,1.23
2019-01-21T06:01:15.865Z,1.10
2019-01-21T06:07:12.664Z,1.18
2019-01-21T06:12:52.550Z,1.22
2019-01-21T06:18:33.880Z,1.13
2019-01-21T06:23:48.336Z,1.24
2019-01-21T06:29:24.283Z,1.40
2019-01-21T06:35:00.866Z,1.34
2019-01-21T06:40:45.831Z,1.26
2019-01-21T06:46:24.961Z,1.18
2019-01-21T06:52:21.933Z,1.17
2019-01-21T06:57:56.082Z,1.20
2019-01-21T07:03:54.371Z,1.45
2019-01-21T07:09:33.743Z,1.53
2019-01-21T07:15:30.892Z,1.53
2019-01-21T07:21:25.929Z,1.53
2019-01-21T07:27:26.230Z,1.62
2019-01-21T07:33:23.630Z,1.87
2019-01-21T07:39:09.719Z,2.02
2019-01-21T07:44:40.792Z,2.39
2019-01-21T07:50:27.116Z,2.48
2019-01-21T07:56:19.145Z,2.74
2019-01-21T08:01:29.102Z,2.95
2019-01-21T08:06:43.325Z,2.63
2019-01-21T08:12:50.334Z,2.58
2019-01-21T08:18:27.224Z,2.64
2019-01-21T08:24:21.644Z,2.78
2019-01-21T08:29:58.984Z,3.02
2019-01-21T08:35:38.909Z,3.29
2019-01-21T08:41:14.264Z,3.24
2019-01-21T08:47:07.963Z,3.24
2019-01-21T08:52:59.373Z,3.20
2019-01-21T08:58:57.335Z,3.32
2019-01-21T09:04:39.747Z,3.62
2019-01-21T09:10:13.694Z,3.91
2019-01-21T09:15:43.943Z,4.05
2019-01-21T09:21:38.385Z,3.87
2019-01-21T09:27:17.969Z,3.99
2019-01-21T09:33:03.454Z,3.98
2019-01-21T09:38:53.728Z,4.11
2019-01-21T09:44:20.369Z,4.40
2019-01-21T09:49:23.688Z,4.62
2019-01-21T09:54:30.452Z,4.75
2019-01-21T09:59:35.801Z,5.28
2019-01-21T10:05:05.243Z,5.23
2019-01-21T10:10:45.321Z,4.72
2019-01-21T10:16:13.304Z,4.72
2019-01-21T10:21:49.832Z,4.33
2019-01-21T10:27:34.903Z,4.57
2019-01-21T10:33:13.392Z,4.55
2019-01-21T10:38:46.238Z,4.74
2019-01-21T10:44:28.496Z,4.70
2019-01-21T10:50:21.164Z,5.09
2019-01-21T10:55:52.949Z,4.99
2019-01-21T11:01:35.328Z,4.94
2019-01-21T11:07:33.317Z,4.70
2019-01-21T11:13:20.093Z,4.79
2019-01-21T11:19:14.269Z,5.03
2019-01-21T11:24:49.385Z,5.02
2019-01-21T11:30:21.837Z,5.17
2019-01-21T11:36:09.600Z,5.23
2019-01-21T11:41:30.418Z,5.47
2019-01-21T11:47:01.928Z,5.57
2019-01-21T11:52:40.062Z,5.89
2019-01-21T11:58:14.606Z,5.73
2019-01-21T12:03:24.703Z,5.84
2019-01-21T12:09:25.336Z,5.81
2019-01-21T12:15:07.881Z,5.57
2019-01-21T12:20:37.598Z,5.40
2019-01-21T12:26:05.775Z,4.87
2019-01-21T12:31:34.769Z,4.93
2019-01-21T12:36:49.472Z,4.80
2019-01-21T12:42:17.820Z,4.92
2019-01-21T12:47:42.978Z,5.02
2019-01-21T12:53:15.878Z,5.12
2019-01-21T12:58:51.323Z,5.11
2019-01-21T13:04:50.288Z,5.07
2019-01-21T13:10:52.313Z,5.14
2019-01-21T13:16:38.274Z,5.24
2019-01-21T13:22:18.253Z,5.45
2019-01-21T13:28:03.513Z,5.64
2019-01-21T13:33:30.457Z,5.77
2019-01-21T13:39:08.380Z,5.86
2019-01-21T13:45:07.837Z,5.97
2019-01-21T13:50:56.496Z,6.00
2019-01-21T13:56:41.744Z,6.14
2019-01-21T14:01:52.880Z,6.11
2019-01-21T14:07:41.055Z,6.10
2019-01-21T14:13:11.890Z,6.14
2019-01-21T14:18:57.929Z,6.20
2019-01-21T14:24:33.399Z,6.22
2019-01-21T14:30:07.382Z,6.28
2019-01-21T14:36:15.664Z,6.28
2019-01-21T14:42:07.257Z,6.23
2019-01-21T14:47:53.363Z,6.07
2019-01-21T14:53:08.474Z,5.89
2019-01-21T14:58:44.903Z,5.70
2019-01-21T15:04:36.901Z,5.53
2019-01-21T15:10:24.651Z,5.27
2019-01-21T15:16:15.596Z,5.14
2019-01-21T15:21:31.473Z,4.93
2019-01-21T15:27:12.181Z,4.85
2019-01-21T15:32:58.198Z,4.63
2019-01-21T15:38:29.491Z,4.54
2019-01-21T15:44:24.475Z,4.45
2019-01-21T15:49:48.592Z,4.32
2019-01-21T15:55:25.283Z,4.14
2019-01-21T16:00:59.889Z,4.04
2019-01-21T16:06:21.585Z,3.99
2019-01-21T16:11:53.602Z,3.93
2019-01-21T16:17:41.213Z,3.80
2019-01-21T16:23:14.266Z,3.58
2019-01-21T16:28:36.415Z,3.45
2019-01-21T16:34:19.277Z,3.24
2019-01-21T16:40:07.586Z,3.10
2019-01-21T16:45:12.622Z,3.11
2019-01-21T16:50:16.706Z,3.10
2019-01-21T16:55:21.761Z,3.06
2019-01-21T17:00:25.967Z,3.01
2019-01-21T17:05:32.314Z,2.76
2019-01-21T17:10:39.231Z,2.64
2019-01-21T17:15:42.446Z,2.67
2019-01-21T17:20:48.874Z,2.73
2019-01-21T17:26:00.915Z,2.95
2019-01-21T17:31:08.950Z,2.84
2019-01-21T17:36:12.980Z,2.74
2019-01-21T17:41:20.345Z,2.72
2019-01-21T17:46:24.475Z,2.73
2019-01-21T17:51:33.722Z,2.64
2019-01-21T17:56:34.988Z,2.62
2019-01-21T18:01:40.163Z,2.59
2019-01-21T18:06:44.640Z,2.68
2019-01-21T18:11:48.578Z,2.89
2019-01-21T18:16:52.758Z,2.97
2019-01-21T18:21:56.962Z,2.93
2019-01-21T18:27:02.157Z,3.08
2019-01-21T18:32:06.316Z,3.03
2019-01-21T18:37:11.494Z,3.07
2019-01-21T18:42:15.690Z,2.99
2019-01-21T18:47:19.787Z,2.87
2019-01-21T18:52:24.442Z,2.93
2019-01-21T18:57:28.704Z,2.83
2019-01-21T19:02:32.798Z,2.96
2019-01-21T19:07:38.747Z,3.07
2019-01-21T19:12:42.677Z,3.20
2019-01-21T19:17:46.824Z,3.20
2019-01-21T19:22:51.507Z,3.28
2019-01-21T19:27:55.727Z,3.28
2019-01-21T19:32:59.700Z,3.29
2019-01-21T19:38:03.831Z,3.16
2019-01-21T19:43:08.495Z,3.15
2019-01-21T19:48:13.156Z,3.32
2019-01-21T19:53:17.808Z,3.35
2019-01-21T19:58:21.811Z,3.43
2019-01-21T20:03:26.123Z,3.52
2019-01-21T20:08:30.851Z,3.44
2019-01-21T20:13:36.679Z,3.48
2019-01-21T20:18:46.539Z,2.99
2019-01-21T20:23:51.184Z,2.73
2019-01-21T20:28:56.901Z,2.51
2019-01-21T20:34:01.031Z,2.42
2019-01-21T20:39:08.077Z,2.44
2019-01-21T20:44:12.400Z,2.57
2019-01-21T20:49:16.393Z,2.57
2019-01-21T20:54:20.412Z,2.70
2019-01-21T20:59:24.384Z,2.71
2019-01-21T21:04:28.486Z,2.67
2019-01-21T21:09:34.420Z,2.67
2019-01-21T21:14:38.512Z,2.57
2019-01-21T21:19:42.669Z,2.57
2019-01-21T21:24:47.652Z,2.52
2019-01-21T21:29:52.695Z,2.50
2019-01-21T21:34:57.422Z,2.44
2019-01-21T21:40:08.426Z,2.30
2019-01-21T21:45:13.701Z,1.98
2019-01-21T21:50:21.067Z,1.99
2019-01-21T21:55:29.866Z,2.07
2019-01-21T22:00:34.544Z,2.04
2019-01-21T22:05:38.609Z,2.12
2019-01-21T22:10:43.632Z,2.17
2019-01-21T22:15:48.133Z,2.15
2019-01-21T22:20:52.326Z,2.19
2019-01-21T22:25:56.496Z,2.14
2019-01-21T22:31:00.554Z,2.00
2019-01-21T22:36:05.248Z,2.09
2019-01-21T22:41:09.622Z,2.09
2019-01-21T22:46:13.709Z,2.08
2019-01-21T22:51:17.623Z,2.10
2019-01-21T22:56:21.564Z,2.18
2019-01-21T23:01:31.304Z,2.04
2019-01-21T23:06:35.356Z,2.02
2019-01-21T23:11:40.160Z,1.97
2019-01-21T23:16:44.084Z,1.93
2019-01-21T23:21:48.190Z,1.98
2019-01-21T23:26:52.585Z,1.94
2019-01-21T23:31:56.682Z,1.88
2019-01-21T23:37:01.354Z,1.85
2019-01-21T23:42:05.420Z,1.60
2019-01-21T23:47:09.370Z,1.81
2019-01-21T23:52:13.335Z,1.71
2019-01-21T23:57:17.218Z,1.56
